sensor_id;sensor_type;location;lat;lon;timestamp;temperature;humidity
32534;DHT22;18973;48.580;8.912;2023-11-19T00:02:09;7.90;99.90
32534;DHT22;18973;48.580;8.912;2023-11-19T00:04:38;8.00;99.90
32534;DHT22;18973;48.580;8.912;2023-11-19T00:07:07;8.10;99.90
32534;DHT22;18973;48.580;8.912;2023-11-19T00:09:36;8.20;99.90
32534;DHT22;18973;48.580;8.912;2023-11-19T00:12:04;8.20;99.90
32534;DHT22;18973;48.580;8.912;2023-11-19T00:14:30;8.20;99.90
32534;DHT22;18973;48.580;8.912;2023-11-19T00:16:56;8.30;99.90
32534;DHT22;18973;48.580;8.912;2023-11-19T00:19:22;8.30;99.90
32534;DHT22;18973;48.580;8.912;2023-11-19T00:21:47;8.40;99.90
32534;DHT22;18973;48.580;8.912;2023-11-19T00:24:13;8.40;99.90
32534;DHT22;18973;48.580;8.912;2023-11-19T00:26:42;8.40;99.90
32534;DHT22;18973;48.580;8.912;2023-11-19T00:29:08;8.40;99.90
32534;DHT22;18973;48.580;8.912;2023-11-19T00:31:33;8.40;99.90
32534;DHT22;18973;48.580;8.912;2023-11-19T00:33:59;8.50;99.90
32534;DHT22;18973;48.580;8.912;2023-11-19T00:36:25;8.50;99.90
32534;DHT22;18973;48.580;8.912;2023-11-19T00:38:51;8.40;99.90
32534;DHT22;18973;48.580;8.912;2023-11-19T00:41:18;8.40;99.90
32534;DHT22;18973;48.580;8.912;2023-11-19T00:43:44;8.40;99.90
32534;DHT22;18973;48.580;8.912;2023-11-19T00:46:10;8.50;99.90
32534;DHT22;18973;48.580;8.912;2023-11-19T00:48:42;8.60;99.90
32534;DHT22;18973;48.580;8.912;2023-11-19T00:51:07;8.60;99.90
32534;DHT22;18973;48.580;8.912;2023-11-19T00:53:33;8.60;99.90
32534;DHT22;18973;48.580;8.912;2023-11-19T00:56:01;8.50;99.90
32534;DHT22;18973;48.580;8.912;2023-11-19T00:58:27;8.60;99.90
32534;DHT22;18973;48.580;8.912;2023-11-19T01:00:53;8.50;99.90
32534;DHT22;18973;48.580;8.912;2023-11-19T01:03:18;8.60;99.90
32534;DHT22;18973;48.580;8.912;2023-11-19T01:05:44;8.60;99.90
32534;DHT22;18973;48.580;8.912;2023-11-19T01:08:12;8.70;99.90
32534;DHT22;18973;48.580;8.912;2023-11-19T01:10:38;8.70;99.90
32534;DHT22;18973;48.580;8.912;2023-11-19T01:13:04;8.70;99.90
32534;DHT22;18973;48.580;8.912;2023-11-19T01:15:32;8.70;99.90
32534;DHT22;18973;48.580;8.912;2023-11-19T01:17:58;8.80;99.90
32534;DHT22;18973;48.580;8.912;2023-11-19T01:20:24;8.90;99.90
32534;DHT22;18973;48.580;8.912;2023-11-19T01:22:50;8.80;99.90
32534;DHT22;18973;48.580;8.912;2023-11-19T01:25:16;8.90;99.90
32534;DHT22;18973;48.580;8.912;2023-11-19T01:27:42;8.70;99.90
32534;DHT22;18973;48.580;8.912;2023-11-19T01:30:08;8.70;99.90
32534;DHT22;18973;48.580;8.912;2023-11-19T01:32:41;8.70;99.90
32534;DHT22;18973;48.580;8.912;2023-11-19T01:35:07;8.70;99.90
32534;DHT22;18973;48.580;8.912;2023-11-19T01:37:36;8.80;99.90
32534;DHT22;18973;48.580;8.912;2023-11-19T01:40:02;8.90;99.90
32534;DHT22;18973;48.580;8.912;2023-11-19T01:42:30;8.70;99.90
32534;DHT22;18973;48.580;8.912;2023-11-19T01:45:01;8.80;99.90
32534;DHT22;18973;48.580;8.912;2023-11-19T01:47:27;8.90;99.90
32534;DHT22;18973;48.580;8.912;2023-11-19T01:49:54;8.90;99.90
32534;DHT22;18973;48.580;8.912;2023-11-19T01:52:21;8.80;99.90
32534;DHT22;18973;48.580;8.912;2023-11-19T01:54:47;8.80;99.90
32534;DHT22;18973;48.580;8.912;2023-11-19T01:57:14;8.90;99.90
32534;DHT22;18973;48.580;8.912;2023-11-19T01:59:40;8.70;99.90
32534;DHT22;18973;48.580;8.912;2023-11-19T02:02:07;8.80;99.90
32534;DHT22;18973;48.580;8.912;2023-11-19T02:04:33;8.80;99.90
32534;DHT22;18973;48.580;8.912;2023-11-19T02:06:59;9.00;99.90
32534;DHT22;18973;48.580;8.912;2023-11-19T02:09:25;8.90;99.90
32534;DHT22;18973;48.580;8.912;2023-11-19T02:11:52;8.90;99.90
32534;DHT22;18973;48.580;8.912;2023-11-19T02:14:23;8.80;99.90
32534;DHT22;18973;48.580;8.912;2023-11-19T02:16:51;8.80;99.90
32534;DHT22;18973;48.580;8.912;2023-11-19T02:19:19;8.90;99.90
32534;DHT22;18973;48.580;8.912;2023-11-19T02:21:45;8.80;99.90
32534;DHT22;18973;48.580;8.912;2023-11-19T02:24:12;8.90;99.90
32534;DHT22;18973;48.580;8.912;2023-11-19T02:26:44;9.00;99.90
32534;DHT22;18973;48.580;8.912;2023-11-19T02:29:12;9.10;99.90
32534;DHT22;18973;48.580;8.912;2023-11-19T02:31:38;9.00;99.90
32534;DHT22;18973;48.580;8.912;2023-11-19T02:34:04;9.00;99.90
32534;DHT22;18973;48.580;8.912;2023-11-19T02:36:31;9.10;99.90
32534;DHT22;18973;48.580;8.912;2023-11-19T02:38:58;9.20;99.90
32534;DHT22;18973;48.580;8.912;2023-11-19T02:41:23;9.30;99.90
32534;DHT22;18973;48.580;8.912;2023-11-19T02:43:49;9.40;99.90
32534;DHT22;18973;48.580;8.912;2023-11-19T02:46:15;9.50;99.90
32534;DHT22;18973;48.580;8.912;2023-11-19T02:48:42;9.60;99.90
32534;DHT22;18973;48.580;8.912;2023-11-19T02:51:10;9.60;99.90
32534;DHT22;18973;48.580;8.912;2023-11-19T02:53:36;9.60;99.90
32534;DHT22;18973;48.580;8.912;2023-11-19T02:56:05;9.70;99.90
32534;DHT22;18973;48.580;8.912;2023-11-19T02:58:35;9.80;99.90
32534;DHT22;18973;48.580;8.912;2023-11-19T03:01:00;9.80;99.90
32534;DHT22;18973;48.580;8.912;2023-11-19T03:03:35;9.70;99.90
32534;DHT22;18973;48.580;8.912;2023-11-19T03:06:07;9.70;99.90
32534;DHT22;18973;48.580;8.912;2023-11-19T03:08:36;9.80;99.90
32534;DHT22;18973;48.580;8.912;2023-11-19T03:11:02;9.70;99.90
32534;DHT22;18973;48.580;8.912;2023-11-19T03:13:30;9.60;99.90
32534;DHT22;18973;48.580;8.912;2023-11-19T03:15:56;9.70;99.90
32534;DHT22;18973;48.580;8.912;2023-11-19T03:18:21;9.70;99.90
32534;DHT22;18973;48.580;8.912;2023-11-19T03:20:47;9.80;99.90
32534;DHT22;18973;48.580;8.912;2023-11-19T03:23:13;9.80;99.90
32534;DHT22;18973;48.580;8.912;2023-11-19T03:25:39;9.90;99.90
32534;DHT22;18973;48.580;8.912;2023-11-19T03:28:04;9.90;99.90
32534;DHT22;18973;48.580;8.912;2023-11-19T03:30:30;9.90;99.90
32534;DHT22;18973;48.580;8.912;2023-11-19T03:32:57;9.80;99.90
32534;DHT22;18973;48.580;8.912;2023-11-19T03:35:23;9.70;99.90
32534;DHT22;18973;48.580;8.912;2023-11-19T03:37:50;9.60;99.90
32534;DHT22;18973;48.580;8.912;2023-11-19T03:40:16;9.70;99.90
32534;DHT22;18973;48.580;8.912;2023-11-19T03:42:42;9.60;99.90
32534;DHT22;18973;48.580;8.912;2023-11-19T03:45:09;9.60;99.90
32534;DHT22;18973;48.580;8.912;2023-11-19T03:47:35;9.70;99.90
32534;DHT22;18973;48.580;8.912;2023-11-19T03:50:02;9.70;99.90
32534;DHT22;18973;48.580;8.912;2023-11-19T03:52:28;9.80;99.90
32534;DHT22;18973;48.580;8.912;2023-11-19T03:54:57;9.90;99.90
32534;DHT22;18973;48.580;8.912;2023-11-19T03:57:23;10.00;99.90
32534;DHT22;18973;48.580;8.912;2023-11-19T03:59:49;10.00;99.90
32534;DHT22;18973;48.580;8.912;2023-11-19T04:02:15;9.90;99.90
32534;DHT22;18973;48.580;8.912;2023-11-19T04:04:41;10.00;99.90
32534;DHT22;18973;48.580;8.912;2023-11-19T04:07:07;10.00;99.90
32534;DHT22;18973;48.580;8.912;2023-11-19T04:09:33;10.00;99.90
32534;DHT22;18973;48.580;8.912;2023-11-19T04:11:59;10.10;99.90
32534;DHT22;18973;48.580;8.912;2023-11-19T04:14:26;10.10;99.90
32534;DHT22;18973;48.580;8.912;2023-11-19T04:16:52;10.20;99.90
32534;DHT22;18973;48.580;8.912;2023-11-19T04:19:19;10.30;99.90
32534;DHT22;18973;48.580;8.912;2023-11-19T04:21:44;10.30;99.90
32534;DHT22;18973;48.580;8.912;2023-11-19T04:24:11;10.30;99.90
32534;DHT22;18973;48.580;8.912;2023-11-19T04:26:44;10.20;99.90
32534;DHT22;18973;48.580;8.912;2023-11-19T04:29:14;10.10;99.90
32534;DHT22;18973;48.580;8.912;2023-11-19T04:31:43;10.20;99.90
32534;DHT22;18973;48.580;8.912;2023-11-19T04:34:09;10.10;99.90
32534;DHT22;18973;48.580;8.912;2023-11-19T04:36:36;10.20;99.90
32534;DHT22;18973;48.580;8.912;2023-11-19T04:39:03;10.30;99.90
32534;DHT22;18973;48.580;8.912;2023-11-19T04:41:33;10.20;99.90
32534;DHT22;18973;48.580;8.912;2023-11-19T04:43:58;10.10;99.90
32534;DHT22;18973;48.580;8.912;2023-11-19T04:46:24;10.20;99.90
32534;DHT22;18973;48.580;8.912;2023-11-19T04:48:50;10.30;99.90
32534;DHT22;18973;48.580;8.912;2023-11-19T04:51:16;10.30;99.90
32534;DHT22;18973;48.580;8.912;2023-11-19T04:53:42;10.30;99.90
32534;DHT22;18973;48.580;8.912;2023-11-19T04:56:09;10.40;99.90
32534;DHT22;18973;48.580;8.912;2023-11-19T04:58:34;10.40;99.90
32534;DHT22;18973;48.580;8.912;2023-11-19T05:01:05;10.40;99.90
32534;DHT22;18973;48.580;8.912;2023-11-19T05:03:31;10.40;99.90
32534;DHT22;18973;48.580;8.912;2023-11-19T05:05:58;10.40;99.90
32534;DHT22;18973;48.580;8.912;2023-11-19T05:08:23;10.30;99.90
32534;DHT22;18973;48.580;8.912;2023-11-19T05:10:49;10.40;99.90
32534;DHT22;18973;48.580;8.912;2023-11-19T05:13:15;10.50;99.90
32534;DHT22;18973;48.580;8.912;2023-11-19T05:15:42;10.40;99.90
32534;DHT22;18973;48.580;8.912;2023-11-19T05:18:08;10.40;99.90
32534;DHT22;18973;48.580;8.912;2023-11-19T05:20:34;10.30;99.90
32534;DHT22;18973;48.580;8.912;2023-11-19T05:23:00;10.30;99.90
32534;DHT22;18973;48.580;8.912;2023-11-19T05:25:26;10.30;99.90
32534;DHT22;18973;48.580;8.912;2023-11-19T05:27:52;10.30;99.90
32534;DHT22;18973;48.580;8.912;2023-11-19T05:30:18;10.40;99.90
32534;DHT22;18973;48.580;8.912;2023-11-19T05:32:44;10.40;99.90
32534;DHT22;18973;48.580;8.912;2023-11-19T05:35:10;10.30;99.90
32534;DHT22;18973;48.580;8.912;2023-11-19T05:37:36;10.40;99.90
32534;DHT22;18973;48.580;8.912;2023-11-19T05:40:02;10.40;99.90
32534;DHT22;18973;48.580;8.912;2023-11-19T05:42:29;10.40;99.90
32534;DHT22;18973;48.580;8.912;2023-11-19T05:44:55;10.50;99.90
32534;DHT22;18973;48.580;8.912;2023-11-19T05:47:20;10.50;99.90
32534;DHT22;18973;48.580;8.912;2023-11-19T05:49:46;10.60;99.90
32534;DHT22;18973;48.580;8.912;2023-11-19T05:52:14;10.60;99.90
32534;DHT22;18973;48.580;8.912;2023-11-19T05:54:40;10.70;99.90
32534;DHT22;18973;48.580;8.912;2023-11-19T05:57:06;10.60;99.90
32534;DHT22;18973;48.580;8.912;2023-11-19T05:59:35;10.60;99.90
32534;DHT22;18973;48.580;8.912;2023-11-19T06:02:02;10.60;99.90
32534;DHT22;18973;48.580;8.912;2023-11-19T06:04:28;10.60;99.90
32534;DHT22;18973;48.580;8.912;2023-11-19T06:06:54;10.60;99.90
32534;DHT22;18973;48.580;8.912;2023-11-19T06:09:22;10.70;99.90
32534;DHT22;18973;48.580;8.912;2023-11-19T06:11:51;10.70;99.90
32534;DHT22;18973;48.580;8.912;2023-11-19T06:14:18;10.60;99.90
32534;DHT22;18973;48.580;8.912;2023-11-19T06:16:44;10.60;99.90
32534;DHT22;18973;48.580;8.912;2023-11-19T06:19:10;10.60;99.90
32534;DHT22;18973;48.580;8.912;2023-11-19T06:21:38;10.60;99.90
32534;DHT22;18973;48.580;8.912;2023-11-19T06:24:04;10.70;99.90
32534;DHT22;18973;48.580;8.912;2023-11-19T06:26:30;10.60;99.90
32534;DHT22;18973;48.580;8.912;2023-11-19T06:28:55;10.70;99.90
32534;DHT22;18973;48.580;8.912;2023-11-19T06:31:21;10.70;99.90
32534;DHT22;18973;48.580;8.912;2023-11-19T06:33:47;10.60;99.90
32534;DHT22;18973;48.580;8.912;2023-11-19T06:36:16;10.70;99.90
32534;DHT22;18973;48.580;8.912;2023-11-19T06:38:42;10.70;99.90
32534;DHT22;18973;48.580;8.912;2023-11-19T06:41:09;10.70;99.90
32534;DHT22;18973;48.580;8.912;2023-11-19T06:43:35;10.70;99.90
32534;DHT22;18973;48.580;8.912;2023-11-19T06:46:02;10.80;99.90
32534;DHT22;18973;48.580;8.912;2023-11-19T06:48:27;10.90;99.90
32534;DHT22;18973;48.580;8.912;2023-11-19T06:50:53;10.90;99.90
32534;DHT22;18973;48.580;8.912;2023-11-19T06:53:19;10.90;99.90
32534;DHT22;18973;48.580;8.912;2023-11-19T06:55:44;10.80;99.90
32534;DHT22;18973;48.580;8.912;2023-11-19T06:58:11;10.90;99.90
32534;DHT22;18973;48.580;8.912;2023-11-19T07:00:37;10.80;99.90
32534;DHT22;18973;48.580;8.912;2023-11-19T07:03:03;10.80;99.90
32534;DHT22;18973;48.580;8.912;2023-11-19T07:05:29;10.90;99.90
32534;DHT22;18973;48.580;8.912;2023-11-19T07:07:55;10.90;99.90
32534;DHT22;18973;48.580;8.912;2023-11-19T07:10:21;10.90;99.90
32534;DHT22;18973;48.580;8.912;2023-11-19T07:12:47;10.90;99.90
32534;DHT22;18973;48.580;8.912;2023-11-19T07:15:15;10.90;99.90
32534;DHT22;18973;48.580;8.912;2023-11-19T07:17:43;10.90;99.90
32534;DHT22;18973;48.580;8.912;2023-11-19T07:20:11;11.00;99.90
32534;DHT22;18973;48.580;8.912;2023-11-19T07:22:39;11.00;99.90
32534;DHT22;18973;48.580;8.912;2023-11-19T07:25:04;11.00;99.90
32534;DHT22;18973;48.580;8.912;2023-11-19T07:27:30;10.90;99.90
32534;DHT22;18973;48.580;8.912;2023-11-19T07:29:56;10.90;99.90
32534;DHT22;18973;48.580;8.912;2023-11-19T07:32:23;11.00;99.90
32534;DHT22;18973;48.580;8.912;2023-11-19T07:34:48;11.10;99.90
32534;DHT22;18973;48.580;8.912;2023-11-19T07:37:14;11.10;99.90
32534;DHT22;18973;48.580;8.912;2023-11-19T07:39:40;11.20;99.90
32534;DHT22;18973;48.580;8.912;2023-11-19T07:42:06;11.20;99.90
32534;DHT22;18973;48.580;8.912;2023-11-19T07:44:32;11.20;99.90
32534;DHT22;18973;48.580;8.912;2023-11-19T07:46:58;11.20;99.90
32534;DHT22;18973;48.580;8.912;2023-11-19T07:49:24;11.30;99.90
32534;DHT22;18973;48.580;8.912;2023-11-19T07:51:49;11.30;99.90
32534;DHT22;18973;48.580;8.912;2023-11-19T07:54:15;11.40;99.90
32534;DHT22;18973;48.580;8.912;2023-11-19T07:56:41;11.40;99.90
32534;DHT22;18973;48.580;8.912;2023-11-19T07:59:06;11.40;99.90
32534;DHT22;18973;48.580;8.912;2023-11-19T08:01:32;11.40;99.90
32534;DHT22;18973;48.580;8.912;2023-11-19T08:03:58;11.40;99.90
32534;DHT22;18973;48.580;8.912;2023-11-19T08:06:24;11.40;99.90
32534;DHT22;18973;48.580;8.912;2023-11-19T08:08:50;11.40;99.90
32534;DHT22;18973;48.580;8.912;2023-11-19T08:11:17;11.40;99.90
32534;DHT22;18973;48.580;8.912;2023-11-19T08:13:45;11.40;99.90
32534;DHT22;18973;48.580;8.912;2023-11-19T08:16:10;11.40;99.90
32534;DHT22;18973;48.580;8.912;2023-11-19T08:18:36;11.40;99.90
32534;DHT22;18973;48.580;8.912;2023-11-19T08:21:02;11.50;99.90
32534;DHT22;18973;48.580;8.912;2023-11-19T08:23:30;11.50;99.90
32534;DHT22;18973;48.580;8.912;2023-11-19T08:25:55;11.50;99.90
32534;DHT22;18973;48.580;8.912;2023-11-19T08:28:21;11.60;99.90
32534;DHT22;18973;48.580;8.912;2023-11-19T08:30:47;11.50;99.90
32534;DHT22;18973;48.580;8.912;2023-11-19T08:33:13;11.60;99.90
32534;DHT22;18973;48.580;8.912;2023-11-19T08:35:38;11.60;99.90
32534;DHT22;18973;48.580;8.912;2023-11-19T08:38:04;11.50;99.90
32534;DHT22;18973;48.580;8.912;2023-11-19T08:40:29;11.50;99.90
32534;DHT22;18973;48.580;8.912;2023-11-19T08:42:56;11.60;99.90
32534;DHT22;18973;48.580;8.912;2023-11-19T08:45:22;11.70;99.90
32534;DHT22;18973;48.580;8.912;2023-11-19T08:47:47;11.70;99.90
32534;DHT22;18973;48.580;8.912;2023-11-19T08:50:13;11.80;99.90
32534;DHT22;18973;48.580;8.912;2023-11-19T08:52:39;11.90;99.90
32534;DHT22;18973;48.580;8.912;2023-11-19T08:55:05;12.10;99.90
32534;DHT22;18973;48.580;8.912;2023-11-19T08:57:31;12.40;99.90
32534;DHT22;18973;48.580;8.912;2023-11-19T08:59:58;12.60;99.90
32534;DHT22;18973;48.580;8.912;2023-11-19T09:02:24;12.80;99.90
32534;DHT22;18973;48.580;8.912;2023-11-19T09:04:49;12.90;99.90
32534;DHT22;18973;48.580;8.912;2023-11-19T09:07:16;13.10;99.90
32534;DHT22;18973;48.580;8.912;2023-11-19T09:09:42;13.20;99.90
32534;DHT22;18973;48.580;8.912;2023-11-19T09:12:07;13.30;99.90
32534;DHT22;18973;48.580;8.912;2023-11-19T09:14:33;13.20;99.90
32534;DHT22;18973;48.580;8.912;2023-11-19T09:16:59;13.10;99.90
32534;DHT22;18973;48.580;8.912;2023-11-19T09:19:25;12.90;99.90
32534;DHT22;18973;48.580;8.912;2023-11-19T09:21:52;12.70;99.90
32534;DHT22;18973;48.580;8.912;2023-11-19T09:24:18;12.60;99.90
32534;DHT22;18973;48.580;8.912;2023-11-19T09:26:44;12.70;99.90
32534;DHT22;18973;48.580;8.912;2023-11-19T09:29:10;12.70;99.90
32534;DHT22;18973;48.580;8.912;2023-11-19T09:31:38;12.80;99.90
32534;DHT22;18973;48.580;8.912;2023-11-19T09:34:04;12.80;99.90
32534;DHT22;18973;48.580;8.912;2023-11-19T09:36:29;12.80;99.90
32534;DHT22;18973;48.580;8.912;2023-11-19T09:38:55;12.80;99.90
32534;DHT22;18973;48.580;8.912;2023-11-19T09:41:21;12.90;99.90
32534;DHT22;18973;48.580;8.912;2023-11-19T09:43:47;13.00;99.90
32534;DHT22;18973;48.580;8.912;2023-11-19T09:46:14;12.90;99.90
32534;DHT22;18973;48.580;8.912;2023-11-19T09:48:40;12.90;99.90
32534;DHT22;18973;48.580;8.912;2023-11-19T09:51:09;12.90;99.90
32534;DHT22;18973;48.580;8.912;2023-11-19T09:53:36;12.90;99.90
32534;DHT22;18973;48.580;8.912;2023-11-19T09:56:03;12.90;99.90
32534;DHT22;18973;48.580;8.912;2023-11-19T09:58:30;12.90;99.90
32534;DHT22;18973;48.580;8.912;2023-11-19T10:00:57;12.90;99.90
32534;DHT22;18973;48.580;8.912;2023-11-19T10:03:35;13.00;99.90
32534;DHT22;18973;48.580;8.912;2023-11-19T10:06:04;13.00;99.90
32534;DHT22;18973;48.580;8.912;2023-11-19T10:08:32;13.00;99.90
32534;DHT22;18973;48.580;8.912;2023-11-19T10:10:57;13.00;99.90
32534;DHT22;18973;48.580;8.912;2023-11-19T10:13:30;13.00;99.90
32534;DHT22;18973;48.580;8.912;2023-11-19T10:15:57;13.00;99.90
32534;DHT22;18973;48.580;8.912;2023-11-19T10:18:26;13.00;99.90
32534;DHT22;18973;48.580;8.912;2023-11-19T10:20:52;13.00;99.90
32534;DHT22;18973;48.580;8.912;2023-11-19T10:23:18;13.00;99.90
32534;DHT22;18973;48.580;8.912;2023-11-19T10:25:44;13.00;99.90
32534;DHT22;18973;48.580;8.912;2023-11-19T10:28:14;13.00;99.90
32534;DHT22;18973;48.580;8.912;2023-11-19T10:30:41;13.00;99.90
32534;DHT22;18973;48.580;8.912;2023-11-19T10:33:12;13.20;99.90
32534;DHT22;18973;48.580;8.912;2023-11-19T10:35:53;13.20;99.90
32534;DHT22;18973;48.580;8.912;2023-11-19T10:38:19;13.20;99.90
32534;DHT22;18973;48.580;8.912;2023-11-19T10:40:45;13.20;99.90
32534;DHT22;18973;48.580;8.912;2023-11-19T10:43:11;13.30;99.90
32534;DHT22;18973;48.580;8.912;2023-11-19T10:45:37;13.30;99.90
32534;DHT22;18973;48.580;8.912;2023-11-19T10:48:05;13.20;99.90
32534;DHT22;18973;48.580;8.912;2023-11-19T10:50:37;13.30;99.90
32534;DHT22;18973;48.580;8.912;2023-11-19T10:53:04;13.20;99.90
32534;DHT22;18973;48.580;8.912;2023-11-19T10:55:32;13.30;99.90
32534;DHT22;18973;48.580;8.912;2023-11-19T10:58:02;13.50;99.90
32534;DHT22;18973;48.580;8.912;2023-11-19T11:00:30;13.50;99.90
32534;DHT22;18973;48.580;8.912;2023-11-19T11:03:01;13.50;99.90
32534;DHT22;18973;48.580;8.912;2023-11-19T11:05:32;13.50;99.90
32534;DHT22;18973;48.580;8.912;2023-11-19T11:08:00;13.60;99.90
32534;DHT22;18973;48.580;8.912;2023-11-19T11:10:27;13.70;99.90
32534;DHT22;18973;48.580;8.912;2023-11-19T11:12:55;13.70;99.90
32534;DHT22;18973;48.580;8.912;2023-11-19T11:15:27;13.70;99.90
32534;DHT22;18973;48.580;8.912;2023-11-19T11:18:00;13.60;99.90
32534;DHT22;18973;48.580;8.912;2023-11-19T11:20:31;13.60;99.90
32534;DHT22;18973;48.580;8.912;2023-11-19T11:23:23;13.60;99.90
32534;DHT22;18973;48.580;8.912;2023-11-19T11:26:09;13.70;99.90
32534;DHT22;18973;48.580;8.912;2023-11-19T11:39:29;14.10;99.90
32534;DHT22;18973;48.580;8.912;2023-11-19T11:42:34;14.10;99.90
32534;DHT22;18973;48.580;8.912;2023-11-19T11:50:15;14.50;99.90
32534;DHT22;18973;48.580;8.912;2023-11-19T11:55:37;14.70;99.90
32534;DHT22;18973;48.580;8.912;2023-11-19T11:58:20;14.50;99.90
32534;DHT22;18973;48.580;8.912;2023-11-19T12:00:48;14.50;99.90
32534;DHT22;18973;48.580;8.912;2023-11-19T12:03:14;14.50;99.90
32534;DHT22;18973;48.580;8.912;2023-11-19T12:05:44;14.40;99.90
32534;DHT22;18973;48.580;8.912;2023-11-19T12:08:11;14.70;99.90
32534;DHT22;18973;48.580;8.912;2023-11-19T12:10:50;14.70;99.90
32534;DHT22;18973;48.580;8.912;2023-11-19T12:13:17;14.60;99.90
32534;DHT22;18973;48.580;8.912;2023-11-19T12:18:27;14.50;99.90
32534;DHT22;18973;48.580;8.912;2023-11-19T12:20:53;14.60;99.90
32534;DHT22;18973;48.580;8.912;2023-11-19T12:23:19;14.70;99.90
32534;DHT22;18973;48.580;8.912;2023-11-19T12:25:45;14.80;99.90
32534;DHT22;18973;48.580;8.912;2023-11-19T12:28:15;14.90;99.90
32534;DHT22;18973;48.580;8.912;2023-11-19T12:30:43;14.80;99.90
32534;DHT22;18973;48.580;8.912;2023-11-19T12:33:10;14.80;99.90
32534;DHT22;18973;48.580;8.912;2023-11-19T12:35:40;14.90;99.90
32534;DHT22;18973;48.580;8.912;2023-11-19T12:38:06;14.90;99.90
32534;DHT22;18973;48.580;8.912;2023-11-19T12:40:32;15.00;99.90
32534;DHT22;18973;48.580;8.912;2023-11-19T12:42:58;15.10;99.90
32534;DHT22;18973;48.580;8.912;2023-11-19T12:45:24;15.00;99.90
32534;DHT22;18973;48.580;8.912;2023-11-19T12:48:07;15.00;99.90
32534;DHT22;18973;48.580;8.912;2023-11-19T12:53:22;15.00;99.90
32534;DHT22;18973;48.580;8.912;2023-11-19T12:55:48;15.00;99.90
32534;DHT22;18973;48.580;8.912;2023-11-19T12:58:34;14.90;99.90
32534;DHT22;18973;48.580;8.912;2023-11-19T13:01:05;14.80;99.90
32534;DHT22;18973;48.580;8.912;2023-11-19T13:03:36;14.90;99.90
32534;DHT22;18973;48.580;8.912;2023-11-19T13:06:10;15.00;99.90
32534;DHT22;18973;48.580;8.912;2023-11-19T13:08:44;15.20;99.90
32534;DHT22;18973;48.580;8.912;2023-11-19T13:11:11;15.40;99.90
32534;DHT22;18973;48.580;8.912;2023-11-19T13:13:56;15.50;99.90
32534;DHT22;18973;48.580;8.912;2023-11-19T13:16:23;15.70;99.90
32534;DHT22;18973;48.580;8.912;2023-11-19T13:18:48;15.60;99.90
32534;DHT22;18973;48.580;8.912;2023-11-19T13:21:14;15.40;99.90
32534;DHT22;18973;48.580;8.912;2023-11-19T13:23:40;15.40;99.90
32534;DHT22;18973;48.580;8.912;2023-11-19T13:26:06;15.50;99.90
32534;DHT22;18973;48.580;8.912;2023-11-19T13:28:31;15.40;99.90
32534;DHT22;18973;48.580;8.912;2023-11-19T13:30:57;15.30;99.90
32534;DHT22;18973;48.580;8.912;2023-11-19T13:33:23;15.20;99.90
32534;DHT22;18973;48.580;8.912;2023-11-19T13:35:49;15.20;99.90
32534;DHT22;18973;48.580;8.912;2023-11-19T13:38:14;15.10;99.90
32534;DHT22;18973;48.580;8.912;2023-11-19T13:40:40;14.90;99.90
32534;DHT22;18973;48.580;8.912;2023-11-19T13:43:06;14.90;99.90
32534;DHT22;18973;48.580;8.912;2023-11-19T13:45:32;14.90;99.90
32534;DHT22;18973;48.580;8.912;2023-11-19T13:47:58;14.90;99.90
32534;DHT22;18973;48.580;8.912;2023-11-19T13:50:24;15.00;99.90
32534;DHT22;18973;48.580;8.912;2023-11-19T13:52:50;15.10;99.90
32534;DHT22;18973;48.580;8.912;2023-11-19T13:55:15;14.90;99.90
32534;DHT22;18973;48.580;8.912;2023-11-19T13:57:42;14.80;99.90
32534;DHT22;18973;48.580;8.912;2023-11-19T14:00:10;14.70;99.90
32534;DHT22;18973;48.580;8.912;2023-11-19T14:02:39;14.60;99.90
32534;DHT22;18973;48.580;8.912;2023-11-19T14:05:05;14.50;99.90
32534;DHT22;18973;48.580;8.912;2023-11-19T14:07:31;14.50;99.90
32534;DHT22;18973;48.580;8.912;2023-11-19T14:09:57;14.50;99.90
32534;DHT22;18973;48.580;8.912;2023-11-19T14:12:23;14.50;99.90
32534;DHT22;18973;48.580;8.912;2023-11-19T14:14:49;14.50;99.90
32534;DHT22;18973;48.580;8.912;2023-11-19T14:17:14;14.70;99.90
32534;DHT22;18973;48.580;8.912;2023-11-19T14:19:42;14.70;99.90
32534;DHT22;18973;48.580;8.912;2023-11-19T14:22:07;14.70;99.90
32534;DHT22;18973;48.580;8.912;2023-11-19T14:24:34;14.60;99.90
32534;DHT22;18973;48.580;8.912;2023-11-19T14:27:00;14.50;99.90
32534;DHT22;18973;48.580;8.912;2023-11-19T14:29:26;14.40;99.90
32534;DHT22;18973;48.580;8.912;2023-11-19T14:31:53;14.30;99.90
32534;DHT22;18973;48.580;8.912;2023-11-19T14:34:20;14.20;99.90
32534;DHT22;18973;48.580;8.912;2023-11-19T14:36:46;14.20;99.90
32534;DHT22;18973;48.580;8.912;2023-11-19T14:39:11;14.10;99.90
32534;DHT22;18973;48.580;8.912;2023-11-19T14:41:37;14.10;99.90
32534;DHT22;18973;48.580;8.912;2023-11-19T14:44:03;14.10;99.90
32534;DHT22;18973;48.580;8.912;2023-11-19T14:46:29;14.00;99.90
32534;DHT22;18973;48.580;8.912;2023-11-19T14:48:54;13.90;99.90
32534;DHT22;18973;48.580;8.912;2023-11-19T14:51:20;13.80;99.90
32534;DHT22;18973;48.580;8.912;2023-11-19T14:53:46;13.70;99.90
32534;DHT22;18973;48.580;8.912;2023-11-19T14:56:12;13.60;99.90
32534;DHT22;18973;48.580;8.912;2023-11-19T14:58:39;13.60;99.90
32534;DHT22;18973;48.580;8.912;2023-11-19T15:01:05;13.50;99.90
32534;DHT22;18973;48.580;8.912;2023-11-19T15:03:31;13.40;99.90
32534;DHT22;18973;48.580;8.912;2023-11-19T15:05:58;13.40;99.90
32534;DHT22;18973;48.580;8.912;2023-11-19T15:08:23;13.40;99.90
32534;DHT22;18973;48.580;8.912;2023-11-19T15:10:49;13.20;99.90
32534;DHT22;18973;48.580;8.912;2023-11-19T15:13:15;13.20;99.90
32534;DHT22;18973;48.580;8.912;2023-11-19T15:15:41;13.20;99.90
32534;DHT22;18973;48.580;8.912;2023-11-19T15:18:07;13.20;99.90
32534;DHT22;18973;48.580;8.912;2023-11-19T15:20:33;13.10;99.90
32534;DHT22;18973;48.580;8.912;2023-11-19T15:22:58;13.10;99.90
32534;DHT22;18973;48.580;8.912;2023-11-19T15:25:24;12.90;99.90
32534;DHT22;18973;48.580;8.912;2023-11-19T15:27:50;12.90;99.90
32534;DHT22;18973;48.580;8.912;2023-11-19T15:30:16;12.90;99.90
32534;DHT22;18973;48.580;8.912;2023-11-19T15:32:42;12.90;99.90
32534;DHT22;18973;48.580;8.912;2023-11-19T15:35:09;12.80;99.90
32534;DHT22;18973;48.580;8.912;2023-11-19T15:37:36;12.80;99.90
32534;DHT22;18973;48.580;8.912;2023-11-19T15:40:06;12.70;99.90
32534;DHT22;18973;48.580;8.912;2023-11-19T15:42:34;12.80;99.90
32534;DHT22;18973;48.580;8.912;2023-11-19T15:44:59;12.70;99.90
32534;DHT22;18973;48.580;8.912;2023-11-19T15:47:25;12.70;99.90
32534;DHT22;18973;48.580;8.912;2023-11-19T15:49:51;12.60;99.90
32534;DHT22;18973;48.580;8.912;2023-11-19T15:52:16;12.60;99.90
32534;DHT22;18973;48.580;8.912;2023-11-19T15:54:42;12.50;99.90
32534;DHT22;18973;48.580;8.912;2023-11-19T15:57:09;12.50;99.90
32534;DHT22;18973;48.580;8.912;2023-11-19T15:59:35;12.40;99.90